sensor_id;sensor_type;location;lat;lon;timestamp;P1;durP1;ratioP1;P2;durP2;ratioP2
41897;SDS011;27576;53.366;-1.498;2023-04-19T00:01:06;22.92;;;11.75;;
41897;SDS011;27576;53.366;-1.498;2023-04-19T00:03:32;22.40;;;11.38;;
41897;SDS011;27576;53.366;-1.498;2023-04-19T00:05:57;18.63;;;11.50;;
41897;SDS011;27576;53.366;-1.498;2023-04-19T00:08:23;21.45;;;11.18;;
41897;SDS011;27576;53.366;-1.498;2023-04-19T00:10:50;27.58;;;11.27;;
41897;SDS011;27576;53.366;-1.498;2023-04-19T00:13:15;26.48;;;12.25;;
41897;SDS011;27576;53.366;-1.498;2023-04-19T00:15:40;26.63;;;11.63;;
41897;SDS011;27576;53.366;-1.498;2023-04-19T00:18:06;22.30;;;11.63;;
41897;SDS011;27576;53.366;-1.498;2023-04-19T00:20:31;21.92;;;11.05;;
41897;SDS011;27576;53.366;-1.498;2023-04-19T00:22:58;26.40;;;11.90;;
41897;SDS011;27576;53.366;-1.498;2023-04-19T00:25:24;21.58;;;11.80;;
41897;SDS011;27576;53.366;-1.498;2023-04-19T00:27:49;21.83;;;11.95;;
41897;SDS011;27576;53.366;-1.498;2023-04-19T00:30:15;26.05;;;12.15;;
41897;SDS011;27576;53.366;-1.498;2023-04-19T00:32:40;19.85;;;11.45;;
41897;SDS011;27576;53.366;-1.498;2023-04-19T00:35:06;21.23;;;12.63;;
41897;SDS011;27576;53.366;-1.498;2023-04-19T00:37:31;23.55;;;12.05;;
41897;SDS011;27576;53.366;-1.498;2023-04-19T00:39:56;25.88;;;12.70;;
41897;SDS011;27576;53.366;-1.498;2023-04-19T00:42:22;18.77;;;12.25;;
41897;SDS011;27576;53.366;-1.498;2023-04-19T00:44:47;22.50;;;11.38;;
41897;SDS011;27576;53.366;-1.498;2023-04-19T00:47:12;23.80;;;12.48;;
41897;SDS011;27576;53.366;-1.498;2023-04-19T00:49:38;26.08;;;11.73;;
41897;SDS011;27576;53.366;-1.498;2023-04-19T00:52:04;18.70;;;10.98;;
41897;SDS011;27576;53.366;-1.498;2023-04-19T00:54:31;19.77;;;11.52;;
41897;SDS011;27576;53.366;-1.498;2023-04-19T00:56:57;22.00;;;11.00;;
41897;SDS011;27576;53.366;-1.498;2023-04-19T00:59:22;18.77;;;10.30;;
41897;SDS011;27576;53.366;-1.498;2023-04-19T01:01:48;22.42;;;11.38;;
41897;SDS011;27576;53.366;-1.498;2023-04-19T01:04:14;27.80;;;12.05;;
41897;SDS011;27576;53.366;-1.498;2023-04-19T01:06:39;18.38;;;10.32;;
41897;SDS011;27576;53.366;-1.498;2023-04-19T01:09:06;22.95;;;11.43;;
41897;SDS011;27576;53.366;-1.498;2023-04-19T01:11:31;24.13;;;11.95;;
41897;SDS011;27576;53.366;-1.498;2023-04-19T01:13:58;25.65;;;11.50;;
41897;SDS011;27576;53.366;-1.498;2023-04-19T01:16:24;16.60;;;11.80;;
41897;SDS011;27576;53.366;-1.498;2023-04-19T01:18:50;27.92;;;11.15;;
41897;SDS011;27576;53.366;-1.498;2023-04-19T01:21:16;20.88;;;11.82;;
41897;SDS011;27576;53.366;-1.498;2023-04-19T01:23:42;24.42;;;12.20;;
41897;SDS011;27576;53.366;-1.498;2023-04-19T01:26:08;19.13;;;11.45;;
41897;SDS011;27576;53.366;-1.498;2023-04-19T01:28:33;31.63;;;11.45;;
41897;SDS011;27576;53.366;-1.498;2023-04-19T01:30:58;21.40;;;11.55;;
41897;SDS011;27576;53.366;-1.498;2023-04-19T01:33:24;22.73;;;10.88;;
41897;SDS011;27576;53.366;-1.498;2023-04-19T01:35:49;21.88;;;11.00;;
41897;SDS011;27576;53.366;-1.498;2023-04-19T01:38:15;22.20;;;12.02;;
41897;SDS011;27576;53.366;-1.498;2023-04-19T01:40:40;18.02;;;9.95;;
41897;SDS011;27576;53.366;-1.498;2023-04-19T01:43:06;21.80;;;10.93;;
41897;SDS011;27576;53.366;-1.498;2023-04-19T01:45:32;21.83;;;11.68;;
41897;SDS011;27576;53.366;-1.498;2023-04-19T01:47:58;21.42;;;12.27;;
41897;SDS011;27576;53.366;-1.498;2023-04-19T01:50:25;20.73;;;11.73;;
41897;SDS011;27576;53.366;-1.498;2023-04-19T01:52:51;22.95;;;12.27;;
41897;SDS011;27576;53.366;-1.498;2023-04-19T01:55:17;20.48;;;11.68;;
41897;SDS011;27576;53.366;-1.498;2023-04-19T01:57:42;25.35;;;11.93;;
41897;SDS011;27576;53.366;-1.498;2023-04-19T02:00:08;22.80;;;10.70;;
41897;SDS011;27576;53.366;-1.498;2023-04-19T02:02:35;24.80;;;12.45;;
41897;SDS011;27576;53.366;-1.498;2023-04-19T02:05:01;18.60;;;11.63;;
41897;SDS011;27576;53.366;-1.498;2023-04-19T02:07:27;18.77;;;12.02;;
41897;SDS011;27576;53.366;-1.498;2023-04-19T02:09:52;20.40;;;12.00;;
41897;SDS011;27576;53.366;-1.498;2023-04-19T02:12:17;19.02;;;10.55;;
41897;SDS011;27576;53.366;-1.498;2023-04-19T02:14:43;20.90;;;10.75;;
41897;SDS011;27576;53.366;-1.498;2023-04-19T02:17:08;23.48;;;11.57;;
41897;SDS011;27576;53.366;-1.498;2023-04-19T02:19:34;24.33;;;12.35;;
41897;SDS011;27576;53.366;-1.498;2023-04-19T02:22:00;21.80;;;12.02;;
41897;SDS011;27576;53.366;-1.498;2023-04-19T02:24:28;15.35;;;11.00;;
41897;SDS011;27576;53.366;-1.498;2023-04-19T02:26:54;23.65;;;11.23;;
41897;SDS011;27576;53.366;-1.498;2023-04-19T02:29:19;22.38;;;11.38;;
41897;SDS011;27576;53.366;-1.498;2023-04-19T02:31:48;22.88;;;11.82;;
41897;SDS011;27576;53.366;-1.498;2023-04-19T02:34:14;20.88;;;11.00;;
41897;SDS011;27576;53.366;-1.498;2023-04-19T02:36:39;21.58;;;12.00;;
41897;SDS011;27576;53.366;-1.498;2023-04-19T02:39:05;20.00;;;10.68;;
41897;SDS011;27576;53.366;-1.498;2023-04-19T02:41:30;20.50;;;11.15;;
41897;SDS011;27576;53.366;-1.498;2023-04-19T02:43:56;17.25;;;11.10;;
41897;SDS011;27576;53.366;-1.498;2023-04-19T02:46:21;20.48;;;10.35;;
41897;SDS011;27576;53.366;-1.498;2023-04-19T02:48:46;25.80;;;11.43;;
41897;SDS011;27576;53.366;-1.498;2023-04-19T02:51:15;26.58;;;12.45;;
41897;SDS011;27576;53.366;-1.498;2023-04-19T02:53:41;22.05;;;11.70;;
41897;SDS011;27576;53.366;-1.498;2023-04-19T02:56:07;18.88;;;11.32;;
41897;SDS011;27576;53.366;-1.498;2023-04-19T02:58:33;18.80;;;11.10;;
41897;SDS011;27576;53.366;-1.498;2023-04-19T03:00:59;19.13;;;11.50;;
41897;SDS011;27576;53.366;-1.498;2023-04-19T03:03:24;17.13;;;10.13;;
41897;SDS011;27576;53.366;-1.498;2023-04-19T03:05:49;20.20;;;10.88;;
41897;SDS011;27576;53.366;-1.498;2023-04-19T03:08:15;22.35;;;10.80;;
41897;SDS011;27576;53.366;-1.498;2023-04-19T03:10:40;20.77;;;11.40;;
41897;SDS011;27576;53.366;-1.498;2023-04-19T03:13:06;19.15;;;10.30;;
41897;SDS011;27576;53.366;-1.498;2023-04-19T03:15:31;25.27;;;11.55;;
41897;SDS011;27576;53.366;-1.498;2023-04-19T03:17:56;18.05;;;10.77;;
41897;SDS011;27576;53.366;-1.498;2023-04-19T03:20:22;20.15;;;11.25;;
41897;SDS011;27576;53.366;-1.498;2023-04-19T03:22:47;21.50;;;11.70;;
41897;SDS011;27576;53.366;-1.498;2023-04-19T03:25:13;24.75;;;12.30;;
41897;SDS011;27576;53.366;-1.498;2023-04-19T03:27:38;21.08;;;10.77;;
41897;SDS011;27576;53.366;-1.498;2023-04-19T03:30:04;24.65;;;11.73;;
41897;SDS011;27576;53.366;-1.498;2023-04-19T03:32:30;24.55;;;11.70;;
41897;SDS011;27576;53.366;-1.498;2023-04-19T03:34:56;19.63;;;10.98;;
41897;SDS011;27576;53.366;-1.498;2023-04-19T03:37:21;22.52;;;11.13;;
41897;SDS011;27576;53.366;-1.498;2023-04-19T03:39:47;21.95;;;10.98;;
41897;SDS011;27576;53.366;-1.498;2023-04-19T03:42:12;22.60;;;11.00;;
41897;SDS011;27576;53.366;-1.498;2023-04-19T03:44:37;21.05;;;10.18;;
41897;SDS011;27576;53.366;-1.498;2023-04-19T03:47:03;20.10;;;10.60;;
41897;SDS011;27576;53.366;-1.498;2023-04-19T03:49:28;23.05;;;11.75;;
41897;SDS011;27576;53.366;-1.498;2023-04-19T03:51:53;19.52;;;10.88;;
41897;SDS011;27576;53.366;-1.498;2023-04-19T03:54:19;24.50;;;11.43;;
41897;SDS011;27576;53.366;-1.498;2023-04-19T03:56:44;16.95;;;10.25;;
41897;SDS011;27576;53.366;-1.498;2023-04-19T03:59:10;22.73;;;11.18;;
41897;SDS011;27576;53.366;-1.498;2023-04-19T04:01:35;24.15;;;10.82;;
41897;SDS011;27576;53.366;-1.498;2023-04-19T04:04:06;22.40;;;11.75;;
41897;SDS011;27576;53.366;-1.498;2023-04-19T04:06:32;23.42;;;11.50;;
41897;SDS011;27576;53.366;-1.498;2023-04-19T04:08:58;19.73;;;11.57;;
41897;SDS011;27576;53.366;-1.498;2023-04-19T04:11:23;21.20;;;10.77;;
41897;SDS011;27576;53.366;-1.498;2023-04-19T04:13:49;25.02;;;11.85;;
41897;SDS011;27576;53.366;-1.498;2023-04-19T04:16:15;27.15;;;11.60;;
41897;SDS011;27576;53.366;-1.498;2023-04-19T04:18:40;21.48;;;10.90;;
41897;SDS011;27576;53.366;-1.498;2023-04-19T04:21:05;21.92;;;11.60;;
41897;SDS011;27576;53.366;-1.498;2023-04-19T04:23:31;20.55;;;10.90;;
41897;SDS011;27576;53.366;-1.498;2023-04-19T04:25:58;21.08;;;11.65;;
41897;SDS011;27576;53.366;-1.498;2023-04-19T04:28:30;22.35;;;12.18;;
41897;SDS011;27576;53.366;-1.498;2023-04-19T04:30:56;23.85;;;13.60;;
41897;SDS011;27576;53.366;-1.498;2023-04-19T04:33:25;23.20;;;12.90;;
41897;SDS011;27576;53.366;-1.498;2023-04-19T04:35:54;27.38;;;13.20;;
41897;SDS011;27576;53.366;-1.498;2023-04-19T04:38:20;27.85;;;13.50;;
41897;SDS011;27576;53.366;-1.498;2023-04-19T04:40:49;20.85;;;13.57;;
41897;SDS011;27576;53.366;-1.498;2023-04-19T04:43:17;22.25;;;12.65;;
41897;SDS011;27576;53.366;-1.498;2023-04-19T04:45:46;29.88;;;14.70;;
41897;SDS011;27576;53.366;-1.498;2023-04-19T04:48:12;27.67;;;13.93;;
41897;SDS011;27576;53.366;-1.498;2023-04-19T04:50:38;27.92;;;14.75;;
41897;SDS011;27576;53.366;-1.498;2023-04-19T04:53:03;25.35;;;14.15;;
41897;SDS011;27576;53.366;-1.498;2023-04-19T04:55:28;26.95;;;14.18;;
41897;SDS011;27576;53.366;-1.498;2023-04-19T04:57:54;24.13;;;13.13;;
41897;SDS011;27576;53.366;-1.498;2023-04-19T05:00:19;27.23;;;14.02;;
41897;SDS011;27576;53.366;-1.498;2023-04-19T05:02:45;32.10;;;14.27;;
41897;SDS011;27576;53.366;-1.498;2023-04-19T05:05:10;25.90;;;13.32;;
41897;SDS011;27576;53.366;-1.498;2023-04-19T05:07:36;24.55;;;13.02;;
41897;SDS011;27576;53.366;-1.498;2023-04-19T05:10:01;27.23;;;13.43;;
41897;SDS011;27576;53.366;-1.498;2023-04-19T05:12:26;25.98;;;14.90;;
41897;SDS011;27576;53.366;-1.498;2023-04-19T05:14:52;32.80;;;14.27;;
41897;SDS011;27576;53.366;-1.498;2023-04-19T05:17:17;26.58;;;14.52;;
41897;SDS011;27576;53.366;-1.498;2023-04-19T05:19:42;31.00;;;14.52;;
41897;SDS011;27576;53.366;-1.498;2023-04-19T05:22:08;29.90;;;15.77;;
41897;SDS011;27576;53.366;-1.498;2023-04-19T05:24:33;23.88;;;13.35;;
41897;SDS011;27576;53.366;-1.498;2023-04-19T05:26:59;27.20;;;14.43;;
41897;SDS011;27576;53.366;-1.498;2023-04-19T05:29:25;26.35;;;14.43;;
41897;SDS011;27576;53.366;-1.498;2023-04-19T05:31:51;25.25;;;13.38;;
41897;SDS011;27576;53.366;-1.498;2023-04-19T05:34:16;24.98;;;12.77;;
41897;SDS011;27576;53.366;-1.498;2023-04-19T05:36:41;23.83;;;13.85;;
41897;SDS011;27576;53.366;-1.498;2023-04-19T05:39:07;32.85;;;15.48;;
41897;SDS011;27576;53.366;-1.498;2023-04-19T05:41:33;30.20;;;13.25;;
41897;SDS011;27576;53.366;-1.498;2023-04-19T05:43:58;33.42;;;14.25;;
41897;SDS011;27576;53.366;-1.498;2023-04-19T05:46:24;33.22;;;14.85;;
41897;SDS011;27576;53.366;-1.498;2023-04-19T05:48:49;33.72;;;15.05;;
41897;SDS011;27576;53.366;-1.498;2023-04-19T05:51:14;26.20;;;14.75;;
41897;SDS011;27576;53.366;-1.498;2023-04-19T05:53:42;25.80;;;15.05;;
41897;SDS011;27576;53.366;-1.498;2023-04-19T05:56:07;30.13;;;16.80;;
41897;SDS011;27576;53.366;-1.498;2023-04-19T05:58:32;30.67;;;15.93;;
41897;SDS011;27576;53.366;-1.498;2023-04-19T06:00:58;31.35;;;16.40;;
41897;SDS011;27576;53.366;-1.498;2023-04-19T06:03:23;33.78;;;16.23;;
41897;SDS011;27576;53.366;-1.498;2023-04-19T06:05:49;31.55;;;16.08;;
41897;SDS011;27576;53.366;-1.498;2023-04-19T06:08:14;28.75;;;15.00;;
41897;SDS011;27576;53.366;-1.498;2023-04-19T06:10:40;32.28;;;16.33;;
41897;SDS011;27576;53.366;-1.498;2023-04-19T06:13:08;24.98;;;14.45;;
41897;SDS011;27576;53.366;-1.498;2023-04-19T06:15:33;35.40;;;14.98;;
41897;SDS011;27576;53.366;-1.498;2023-04-19T06:18:00;32.42;;;16.48;;
41897;SDS011;27576;53.366;-1.498;2023-04-19T06:20:25;30.05;;;14.75;;
41897;SDS011;27576;53.366;-1.498;2023-04-19T06:22:50;30.98;;;16.95;;
41897;SDS011;27576;53.366;-1.498;2023-04-19T06:25:16;30.40;;;16.33;;
41897;SDS011;27576;53.366;-1.498;2023-04-19T06:27:42;28.52;;;16.27;;
41897;SDS011;27576;53.366;-1.498;2023-04-19T06:30:07;35.80;;;15.98;;
41897;SDS011;27576;53.366;-1.498;2023-04-19T06:32:33;27.05;;;16.02;;
41897;SDS011;27576;53.366;-1.498;2023-04-19T06:34:58;28.58;;;15.90;;
41897;SDS011;27576;53.366;-1.498;2023-04-19T06:37:23;27.55;;;16.05;;
41897;SDS011;27576;53.366;-1.498;2023-04-19T06:39:49;28.83;;;15.82;;
41897;SDS011;27576;53.366;-1.498;2023-04-19T06:42:14;30.42;;;16.38;;
41897;SDS011;27576;53.366;-1.498;2023-04-19T06:44:42;26.60;;;16.58;;
41897;SDS011;27576;53.366;-1.498;2023-04-19T06:47:08;37.03;;;17.55;;
41897;SDS011;27576;53.366;-1.498;2023-04-19T06:49:33;28.23;;;15.48;;
41897;SDS011;27576;53.366;-1.498;2023-04-19T06:51:58;31.95;;;16.30;;
41897;SDS011;27576;53.366;-1.498;2023-04-19T06:54:24;33.00;;;16.17;;
41897;SDS011;27576;53.366;-1.498;2023-04-19T06:56:49;30.70;;;17.50;;
41897;SDS011;27576;53.366;-1.498;2023-04-19T06:59:16;32.28;;;16.75;;
41897;SDS011;27576;53.366;-1.498;2023-04-19T07:01:43;36.22;;;17.65;;
41897;SDS011;27576;53.366;-1.498;2023-04-19T07:04:09;34.70;;;18.27;;
41897;SDS011;27576;53.366;-1.498;2023-04-19T07:06:36;31.65;;;17.33;;
41897;SDS011;27576;53.366;-1.498;2023-04-19T07:09:02;28.15;;;17.63;;
41897;SDS011;27576;53.366;-1.498;2023-04-19T07:11:29;35.92;;;18.30;;
41897;SDS011;27576;53.366;-1.498;2023-04-19T07:13:55;36.38;;;19.10;;
41897;SDS011;27576;53.366;-1.498;2023-04-19T07:16:20;33.80;;;19.08;;
41897;SDS011;27576;53.366;-1.498;2023-04-19T07:18:46;36.03;;;20.67;;
41897;SDS011;27576;53.366;-1.498;2023-04-19T07:21:11;38.65;;;23.08;;
41897;SDS011;27576;53.366;-1.498;2023-04-19T07:23:37;35.63;;;22.40;;
41897;SDS011;27576;53.366;-1.498;2023-04-19T07:26:02;28.73;;;20.77;;
41897;SDS011;27576;53.366;-1.498;2023-04-19T07:28:28;43.30;;;24.88;;
41897;SDS011;27576;53.366;-1.498;2023-04-19T07:30:53;44.00;;;24.75;;
41897;SDS011;27576;53.366;-1.498;2023-04-19T07:33:19;45.35;;;26.40;;
41897;SDS011;27576;53.366;-1.498;2023-04-19T07:35:44;43.05;;;26.02;;
41897;SDS011;27576;53.366;-1.498;2023-04-19T07:38:10;34.10;;;24.20;;
41897;SDS011;27576;53.366;-1.498;2023-04-19T07:40:35;40.72;;;24.90;;
41897;SDS011;27576;53.366;-1.498;2023-04-19T07:43:00;40.83;;;26.27;;
41897;SDS011;27576;53.366;-1.498;2023-04-19T07:45:26;36.60;;;25.23;;
41897;SDS011;27576;53.366;-1.498;2023-04-19T07:47:52;49.25;;;27.63;;
41897;SDS011;27576;53.366;-1.498;2023-04-19T07:50:17;44.03;;;27.98;;
41897;SDS011;27576;53.366;-1.498;2023-04-19T07:52:43;50.67;;;28.95;;
41897;SDS011;27576;53.366;-1.498;2023-04-19T07:55:08;46.97;;;30.48;;
41897;SDS011;27576;53.366;-1.498;2023-04-19T07:57:34;39.22;;;27.88;;
41897;SDS011;27576;53.366;-1.498;2023-04-19T07:59:59;38.45;;;25.38;;
41897;SDS011;27576;53.366;-1.498;2023-04-19T08:02:26;39.42;;;27.92;;
41897;SDS011;27576;53.366;-1.498;2023-04-19T08:04:52;37.95;;;26.98;;
41897;SDS011;27576;53.366;-1.498;2023-04-19T08:07:17;37.60;;;26.45;;
41897;SDS011;27576;53.366;-1.498;2023-04-19T08:09:42;39.80;;;25.80;;
41897;SDS011;27576;53.366;-1.498;2023-04-19T08:12:08;40.40;;;26.38;;
41897;SDS011;27576;53.366;-1.498;2023-04-19T08:14:33;38.97;;;27.42;;
41897;SDS011;27576;53.366;-1.498;2023-04-19T08:16:58;38.17;;;27.95;;
41897;SDS011;27576;53.366;-1.498;2023-04-19T08:19:24;38.13;;;26.85;;
41897;SDS011;27576;53.366;-1.498;2023-04-19T08:21:49;45.92;;;29.48;;
41897;SDS011;27576;53.366;-1.498;2023-04-19T08:24:15;48.47;;;31.30;;
41897;SDS011;27576;53.366;-1.498;2023-04-19T08:26:40;37.60;;;27.50;;
41897;SDS011;27576;53.366;-1.498;2023-04-19T08:29:06;43.15;;;28.65;;
41897;SDS011;27576;53.366;-1.498;2023-04-19T08:31:31;42.58;;;31.92;;
41897;SDS011;27576;53.366;-1.498;2023-04-19T08:33:57;44.45;;;32.97;;
41897;SDS011;27576;53.366;-1.498;2023-04-19T08:36:24;44.30;;;33.90;;
41897;SDS011;27576;53.366;-1.498;2023-04-19T08:38:50;42.63;;;31.05;;
41897;SDS011;27576;53.366;-1.498;2023-04-19T08:41:16;47.95;;;34.25;;
41897;SDS011;27576;53.366;-1.498;2023-04-19T08:43:42;49.22;;;33.65;;
41897;SDS011;27576;53.366;-1.498;2023-04-19T08:46:09;46.50;;;30.50;;
41897;SDS011;27576;53.366;-1.498;2023-04-19T08:48:35;40.38;;;29.55;;
41897;SDS011;27576;53.366;-1.498;2023-04-19T08:51:01;39.35;;;27.70;;
41897;SDS011;27576;53.366;-1.498;2023-04-19T08:53:28;38.63;;;29.60;;
41897;SDS011;27576;53.366;-1.498;2023-04-19T08:55:54;45.55;;;31.05;;
41897;SDS011;27576;53.366;-1.498;2023-04-19T08:58:23;42.60;;;30.83;;
41897;SDS011;27576;53.366;-1.498;2023-04-19T09:00:53;43.33;;;31.13;;
41897;SDS011;27576;53.366;-1.498;2023-04-19T09:03:19;40.28;;;26.85;;
41897;SDS011;27576;53.366;-1.498;2023-04-19T09:05:44;40.53;;;24.95;;
41897;SDS011;27576;53.366;-1.498;2023-04-19T09:08:19;36.58;;;23.13;;
41897;SDS011;27576;53.366;-1.498;2023-04-19T09:10:55;34.03;;;24.08;;
41897;SDS011;27576;53.366;-1.498;2023-04-19T09:13:22;37.05;;;24.60;;
41897;SDS011;27576;53.366;-1.498;2023-04-19T09:15:49;43.85;;;26.80;;
41897;SDS011;27576;53.366;-1.498;2023-04-19T09:18:15;35.83;;;25.30;;
41897;SDS011;27576;53.366;-1.498;2023-04-19T09:20:41;38.30;;;27.10;;
41897;SDS011;27576;53.366;-1.498;2023-04-19T09:23:09;39.50;;;25.67;;
41897;SDS011;27576;53.366;-1.498;2023-04-19T09:25:37;38.75;;;22.67;;
41897;SDS011;27576;53.366;-1.498;2023-04-19T09:28:09;40.97;;;23.08;;
41897;SDS011;27576;53.366;-1.498;2023-04-19T09:30:36;37.10;;;21.70;;
41897;SDS011;27576;53.366;-1.498;2023-04-19T09:33:02;34.67;;;22.17;;
41897;SDS011;27576;53.366;-1.498;2023-04-19T09:35:45;31.10;;;19.83;;
41897;SDS011;27576;53.366;-1.498;2023-04-19T09:38:14;36.00;;;23.02;;
41897;SDS011;27576;53.366;-1.498;2023-04-19T09:40:40;27.85;;;18.23;;
41897;SDS011;27576;53.366;-1.498;2023-04-19T09:43:06;31.27;;;19.90;;
41897;SDS011;27576;53.366;-1.498;2023-04-19T09:45:39;24.90;;;16.38;;
41897;SDS011;27576;53.366;-1.498;2023-04-19T09:51:42;31.55;;;18.88;;
41897;SDS011;27576;53.366;-1.498;2023-04-19T09:54:09;30.00;;;18.23;;
41897;SDS011;27576;53.366;-1.498;2023-04-19T09:56:35;23.25;;;16.30;;
41897;SDS011;27576;53.366;-1.498;2023-04-19T09:59:02;28.45;;;15.98;;
41897;SDS011;27576;53.366;-1.498;2023-04-19T10:01:28;21.80;;;15.68;;
41897;SDS011;27576;53.366;-1.498;2023-04-19T10:03:58;26.02;;;15.05;;
41897;SDS011;27576;53.366;-1.498;2023-04-19T10:06:24;23.38;;;16.60;;
41897;SDS011;27576;53.366;-1.498;2023-04-19T10:08:52;29.98;;;16.45;;
41897;SDS011;27576;53.366;-1.498;2023-04-19T10:11:19;26.08;;;15.52;;
41897;SDS011;27576;53.366;-1.498;2023-04-19T10:13:46;24.58;;;15.88;;
41897;SDS011;27576;53.366;-1.498;2023-04-19T10:16:14;26.75;;;16.17;;
41897;SDS011;27576;53.366;-1.498;2023-04-19T10:18:40;29.08;;;15.65;;
41897;SDS011;27576;53.366;-1.498;2023-04-19T10:21:06;31.67;;;16.98;;
41897;SDS011;27576;53.366;-1.498;2023-04-19T10:23:34;26.67;;;16.35;;
41897;SDS011;27576;53.366;-1.498;2023-04-19T10:26:01;26.00;;;16.60;;
41897;SDS011;27576;53.366;-1.498;2023-04-19T10:28:29;29.60;;;16.02;;
41897;SDS011;27576;53.366;-1.498;2023-04-19T10:31:01;31.25;;;16.85;;
41897;SDS011;27576;53.366;-1.498;2023-04-19T10:33:35;27.30;;;15.50;;
41897;SDS011;27576;53.366;-1.498;2023-04-19T10:36:01;24.40;;;14.68;;
41897;SDS011;27576;53.366;-1.498;2023-04-19T10:38:35;24.25;;;14.55;;
41897;SDS011;27576;53.366;-1.498;2023-04-19T10:41:02;24.00;;;15.82;;
41897;SDS011;27576;53.366;-1.498;2023-04-19T10:43:31;31.35;;;15.52;;
41897;SDS011;27576;53.366;-1.498;2023-04-19T10:46:40;24.90;;;14.77;;
41897;SDS011;27576;53.366;-1.498;2023-04-19T10:48:50;32.03;;;14.90;;
41897;SDS011;27576;53.366;-1.498;2023-04-19T10:51:26;25.88;;;13.60;;
41897;SDS011;27576;53.366;-1.498;2023-04-19T10:53:59;23.45;;;13.30;;
41897;SDS011;27576;53.366;-1.498;2023-04-19T11:01:39;22.88;;;11.52;;
41897;SDS011;27576;53.366;-1.498;2023-04-19T11:04:16;19.92;;;11.20;;
41897;SDS011;27576;53.366;-1.498;2023-04-19T11:07:00;22.30;;;12.07;;
41897;SDS011;27576;53.366;-1.498;2023-04-19T11:09:39;20.00;;;11.88;;
41897;SDS011;27576;53.366;-1.498;2023-04-19T11:12:10;19.80;;;10.88;;
41897;SDS011;27576;53.366;-1.498;2023-04-19T11:14:41;21.48;;;10.82;;
41897;SDS011;27576;53.366;-1.498;2023-04-19T11:19:43;21.35;;;11.02;;
41897;SDS011;27576;53.366;-1.498;2023-04-19T11:22:16;19.13;;;10.82;;
41897;SDS011;27576;53.366;-1.498;2023-04-19T11:24:45;21.60;;;10.93;;
41897;SDS011;27576;53.366;-1.498;2023-04-19T11:27:13;22.02;;;10.63;;
41897;SDS011;27576;53.366;-1.498;2023-04-19T11:29:39;29.65;;;12.00;;
41897;SDS011;27576;53.366;-1.498;2023-04-19T11:32:05;33.45;;;12.65;;
41897;SDS011;27576;53.366;-1.498;2023-04-19T11:34:37;32.13;;;10.68;;
41897;SDS011;27576;53.366;-1.498;2023-04-19T11:37:05;21.00;;;10.63;;
41897;SDS011;27576;53.366;-1.498;2023-04-19T11:39:31;28.75;;;11.50;;
41897;SDS011;27576;53.366;-1.498;2023-04-19T11:41:56;22.52;;;11.02;;
41897;SDS011;27576;53.366;-1.498;2023-04-19T11:44:22;21.25;;;11.50;;
41897;SDS011;27576;53.366;-1.498;2023-04-19T11:46:58;19.17;;;11.13;;
41897;SDS011;27576;53.366;-1.498;2023-04-19T11:49:28;17.80;;;10.65;;
41897;SDS011;27576;53.366;-1.498;2023-04-19T11:51:58;18.58;;;10.10;;
41897;SDS011;27576;53.366;-1.498;2023-04-19T11:54:25;20.10;;;10.55;;
41897;SDS011;27576;53.366;-1.498;2023-04-19T11:57:00;21.40;;;9.57;;
41897;SDS011;27576;53.366;-1.498;2023-04-19T11:59:28;26.30;;;10.23;;
41897;SDS011;27576;53.366;-1.498;2023-04-19T12:01:54;20.25;;;10.52;;
41897;SDS011;27576;53.366;-1.498;2023-04-19T12:04:19;16.23;;;9.18;;
41897;SDS011;27576;53.366;-1.498;2023-04-19T12:06:54;22.50;;;11.85;;
41897;SDS011;27576;53.366;-1.498;2023-04-19T12:09:21;16.38;;;9.73;;
41897;SDS011;27576;53.366;-1.498;2023-04-19T12:11:47;40.13;;;12.73;;
41897;SDS011;27576;53.366;-1.498;2023-04-19T12:14:16;22.98;;;10.75;;
41897;SDS011;27576;53.366;-1.498;2023-04-19T12:17:02;27.25;;;10.55;;
41897;SDS011;27576;53.366;-1.498;2023-04-19T12:19:33;15.60;;;7.30;;
41897;SDS011;27576;53.366;-1.498;2023-04-19T12:22:07;17.77;;;8.82;;
41897;SDS011;27576;53.366;-1.498;2023-04-19T12:24:37;19.25;;;8.75;;
41897;SDS011;27576;53.366;-1.498;2023-04-19T12:27:03;17.05;;;9.02;;
41897;SDS011;27576;53.366;-1.498;2023-04-19T12:29:29;18.85;;;8.90;;
41897;SDS011;27576;53.366;-1.498;2023-04-19T12:31:54;21.02;;;8.80;;
41897;SDS011;27576;53.366;-1.498;2023-04-19T12:34:19;26.80;;;9.00;;
41897;SDS011;27576;53.366;-1.498;2023-04-19T12:36:45;14.05;;;8.05;;
41897;SDS011;27576;53.366;-1.498;2023-04-19T12:39:10;13.95;;;7.72;;
41897;SDS011;27576;53.366;-1.498;2023-04-19T12:41:35;12.40;;;7.07;;
41897;SDS011;27576;53.366;-1.498;2023-04-19T12:44:01;14.55;;;6.43;;
41897;SDS011;27576;53.366;-1.498;2023-04-19T12:46:26;12.93;;;6.47;;
41897;SDS011;27576;53.366;-1.498;2023-04-19T12:48:52;14.80;;;7.28;;
41897;SDS011;27576;53.366;-1.498;2023-04-19T12:51:17;12.35;;;6.55;;
41897;SDS011;27576;53.366;-1.498;2023-04-19T12:53:46;13.48;;;6.05;;
41897;SDS011;27576;53.366;-1.498;2023-04-19T12:56:13;12.43;;;6.78;;
41897;SDS011;27576;53.366;-1.498;2023-04-19T12:58:40;12.57;;;6.13;;
41897;SDS011;27576;53.366;-1.498;2023-04-19T13:01:05;10.25;;;5.72;;
41897;SDS011;27576;53.366;-1.498;2023-04-19T13:03:31;15.85;;;5.53;;
41897;SDS011;27576;53.366;-1.498;2023-04-19T13:06:00;13.55;;;5.82;;
41897;SDS011;27576;53.366;-1.498;2023-04-19T13:08:25;8.70;;;5.07;;
41897;SDS011;27576;53.366;-1.498;2023-04-19T13:10:51;8.60;;;5.00;;
41897;SDS011;27576;53.366;-1.498;2023-04-19T13:13:16;8.55;;;5.30;;
41897;SDS011;27576;53.366;-1.498;2023-04-19T13:15:41;9.75;;;4.65;;
41897;SDS011;27576;53.366;-1.498;2023-04-19T13:18:07;9.43;;;5.25;;
41897;SDS011;27576;53.366;-1.498;2023-04-19T13:20:32;13.68;;;5.53;;
41897;SDS011;27576;53.366;-1.498;2023-04-19T13:22:57;12.70;;;4.90;;
41897;SDS011;27576;53.366;-1.498;2023-04-19T13:25:23;6.85;;;4.10;;
41897;SDS011;27576;53.366;-1.498;2023-04-19T13:27:48;9.48;;;4.38;;
41897;SDS011;27576;53.366;-1.498;2023-04-19T13:30:14;8.20;;;4.35;;
41897;SDS011;27576;53.366;-1.498;2023-04-19T13:32:39;8.65;;;4.03;;
41897;SDS011;27576;53.366;-1.498;2023-04-19T13:35:05;9.57;;;4.43;;
41897;SDS011;27576;53.366;-1.498;2023-04-19T13:37:30;5.63;;;3.47;;
41897;SDS011;27576;53.366;-1.498;2023-04-19T13:39:56;11.55;;;3.58;;
41897;SDS011;27576;53.366;-1.498;2023-04-19T13:42:21;11.07;;;3.80;;
41897;SDS011;27576;53.366;-1.498;2023-04-19T13:44:47;8.43;;;3.80;;
41897;SDS011;27576;53.366;-1.498;2023-04-19T13:47:12;7.63;;;4.05;;
41897;SDS011;27576;53.366;-1.498;2023-04-19T13:49:38;6.47;;;3.13;;
41897;SDS011;27576;53.366;-1.498;2023-04-19T13:52:03;8.63;;;3.53;;
41897;SDS011;27576;53.366;-1.498;2023-04-19T13:54:28;8.00;;;4.13;;
41897;SDS011;27576;53.366;-1.498;2023-04-19T13:56:54;7.75;;;3.90;;
41897;SDS011;27576;53.366;-1.498;2023-04-19T13:59:20;6.15;;;2.83;;
41897;SDS011;27576;53.366;-1.498;2023-04-19T14:01:45;5.90;;;2.60;;
41897;SDS011;27576;53.366;-1.498;2023-04-19T14:04:11;13.20;;;2.97;;
41897;SDS011;27576;53.366;-1.498;2023-04-19T14:06:36;6.85;;;2.53;;
41897;SDS011;27576;53.366;-1.498;2023-04-19T14:09:02;6.18;;;2.67;;
41897;SDS011;27576;53.366;-1.498;2023-04-19T14:11:27;10.27;;;2.13;;
41897;SDS011;27576;53.366;-1.498;2023-04-19T14:13:52;6.40;;;2.08;;
41897;SDS011;27576;53.366;-1.498;2023-04-19T14:16:18;5.82;;;2.40;;
41897;SDS011;27576;53.366;-1.498;2023-04-19T14:18:44;5.18;;;1.77;;